Time;durP1;ratioP1;P1;durP2;ratioP2;P2;SDS_P1;SDS_P2;PMS_P1;PMS_P2;Temp;Humidity;BMP_temperature;BMP_pressure;BME280_temperature;BME280_humidity;BME280_pressure;Samples;Min_cycle;Max_cycle;Signal;HPM_P1;HPM_P2
2022/02/17 00:00:41;;;;;;;5.30;2.20;;;7.90;67.90;;;;;;5133831;27;20037;-72
2022/02/17 00:03:07;;;;;;;4.67;1.60;;;7.90;68.00;;;;;;5131317;27;20042;-72
2022/02/17 00:05:33;;;;;;;2.67;1.77;;;7.80;68.00;;;;;;5130841;27;20019;-72
2022/02/17 00:07:59;;;;;;;3.27;1.43;;;7.80;68.20;;;;;;5131351;27;20019;-72
2022/02/17 00:10:26;;;;;;;2.37;1.30;;;7.70;68.40;;;;;;5133401;27;20031;-72
2022/02/17 00:12:56;;;;;;;2.67;1.57;;;7.70;68.70;;;;;;5129658;27;20419;-73
2022/02/17 00:15:22;;;;;;;3.00;1.70;;;7.70;68.90;;;;;;5147083;27;20038;-73
2022/02/17 00:17:48;;;;;;;1.90;1.10;;;7.70;68.80;;;;;;5130398;27;20046;-72
2022/02/17 00:20:14;;;;;;;1.93;1.30;;;7.60;69.10;;;;;;5131810;27;20030;-72
2022/02/17 00:22:39;;;;;;;2.63;1.57;;;7.70;69.20;;;;;;5132412;27;20023;-72
2022/02/17 00:25:06;;;;;;;2.27;1.53;;;7.80;68.90;;;;;;5128808;27;20476;-72
2022/02/17 00:27:32;;;;;;;5.30;1.30;;;7.80;68.90;;;;;;5130165;27;20495;-72
2022/02/17 00:29:58;;;;;;;2.27;1.30;;;7.80;68.70;;;;;;5132851;27;20034;-72
2022/02/17 00:32:24;;;;;;;3.83;1.20;;;7.90;68.50;;;;;;5129879;27;20035;-72
2022/02/17 00:34:50;;;;;;;4.17;1.60;;;7.90;68.50;;;;;;5128205;27;20084;-72
2022/02/17 00:37:16;;;;;;;1.47;1.17;;;8.10;68.20;;;;;;5131738;27;20395;-72
2022/02/17 00:39:42;;;;;;;1.87;1.00;;;8.10;68.00;;;;;;5131530;27;20031;-72
2022/02/17 00:42:07;;;;;;;2.67;1.23;;;8.00;67.90;;;;;;5126289;27;20030;-72
2022/02/17 00:44:33;;;;;;;3.00;1.40;;;8.00;68.50;;;;;;5126803;27;20103;-73
2022/02/17 00:46:59;;;;;;;2.13;1.00;;;8.00;68.40;;;;;;5129053;27;20047;-72
2022/02/17 00:49:29;;;;;;;3.10;1.07;;;8.10;68.20;;;;;;5131421;27;20054;-72
2022/02/17 00:51:56;;;;;;;2.83;1.27;;;8.00;68.20;;;;;;5132717;27;20058;-72
2022/02/17 00:54:22;;;;;;;2.90;1.20;;;8.00;68.40;;;;;;5130800;28;20363;-72
2022/02/17 00:56:48;;;;;;;1.77;0.90;;;8.00;68.20;;;;;;5131033;27;20472;-72
2022/02/17 00:59:14;;;;;;;3.53;1.20;;;8.00;68.10;;;;;;5132714;28;20558;-72
2022/02/17 01:01:43;;;;;;;3.23;0.80;;;7.80;68.40;;;;;;5125036;28;20024;-73
2022/02/17 01:04:10;;;;;;;3.30;1.20;;;7.80;68.90;;;;;;5122433;28;20392;-72
2022/02/17 01:06:39;;;;;;;1.27;0.90;;;7.90;68.90;;;;;;5129491;27;20023;-72
2022/02/17 01:09:09;;;;;;;1.77;1.00;;;7.80;68.90;;;;;;5129781;28;20019;-72
2022/02/17 01:11:34;;;;;;;2.00;1.00;;;7.80;69.20;;;;;;5131363;27;20034;-73
2022/02/17 01:14:00;;;;;;;1.50;0.80;;;7.70;69.40;;;;;;5130968;28;20406;-71
2022/02/17 01:16:26;;;;;;;2.63;0.87;;;7.80;69.50;;;;;;5143451;27;20031;-72
2022/02/17 01:18:52;;;;;;;1.87;1.00;;;7.80;69.70;;;;;;5143928;27;20042;-72
2022/02/17 01:21:17;;;;;;;1.13;0.80;;;7.80;69.70;;;;;;5129372;28;20111;-72
2022/02/17 01:23:43;;;;;;;4.57;1.30;;;7.90;69.30;;;;;;5121017;28;20464;-73
2022/02/17 01:26:09;;;;;;;1.67;1.17;;;7.60;69.70;;;;;;5127997;28;20030;-72
2022/02/17 01:28:36;;;;;;;2.40;1.20;;;7.50;70.10;;;;;;5132410;27;20041;-73
2022/02/17 01:31:02;;;;;;;1.90;1.10;;;7.50;70.70;;;;;;5130231;28;20164;-72
2022/02/17 01:33:28;;;;;;;3.17;0.97;;;7.50;70.60;;;;;;5127026;27;20031;-72
2022/02/17 01:35:53;;;;;;;4.33;0.80;;;7.50;71.10;;;;;;5140231;27;20031;-72
2022/02/17 01:38:21;;;;;;;2.30;1.03;;;7.60;71.10;;;;;;5130532;28;20038;-72
2022/02/17 01:40:47;;;;;;;2.33;1.00;;;7.80;70.40;;;;;;5128024;27;20038;-72
2022/02/17 01:43:16;;;;;;;1.57;0.70;;;7.90;70.20;;;;;;5131326;27;20063;-72
2022/02/17 01:45:43;;;;;;;1.43;0.97;;;7.90;70.20;;;;;;5123039;27;20372;-72
2022/02/17 01:48:09;;;;;;;1.27;0.80;;;7.80;69.90;;;;;;5121462;27;20035;-72
2022/02/17 01:50:40;;;;;;;1.93;0.90;;;7.60;70.70;;;;;;5125320;28;20035;-72
2022/02/17 01:53:10;;;;;;;1.70;0.70;;;7.70;70.70;;;;;;5125694;28;20034;-72
2022/02/17 01:55:37;;;;;;;2.53;0.87;;;7.70;70.50;;;;;;5129617;27;20027;-72
2022/02/17 01:58:03;;;;;;;2.13;0.80;;;7.70;70.80;;;;;;5131254;28;20038;-72
2022/02/17 02:00:30;;;;;;;2.77;0.83;;;7.70;70.60;;;;;;5132387;27;20047;-72
2022/02/17 02:02:55;;;;;;;3.53;0.80;;;7.70;70.40;;;;;;5130229;27;20070;-72
2022/02/17 02:05:21;;;;;;;1.43;0.80;;;7.70;70.40;;;;;;5128011;28;20433;-72
2022/02/17 02:07:47;;;;;;;1.37;0.80;;;7.70;70.70;;;;;;5132174;27;20098;-72
2022/02/17 02:10:13;;;;;;;2.43;0.50;;;7.70;70.70;;;;;;5133357;27;20027;-72
2022/02/17 02:12:38;;;;;;;2.27;1.10;;;7.60;70.50;;;;;;5130768;27;20039;-72
2022/02/17 02:15:05;;;;;;;1.43;0.60;;;7.60;70.60;;;;;;5133414;27;20038;-72
2022/02/17 02:17:33;;;;;;;1.30;0.80;;;7.60;70.70;;;;;;5130677;27;20023;-72
2022/02/17 02:20:02;;;;;;;1.60;0.73;;;7.50;70.70;;;;;;5124693;27;20712;-72
2022/02/17 02:22:30;;;;;;;2.70;1.00;;;7.50;70.80;;;;;;5132873;27;20062;-72
2022/02/17 02:24:58;;;;;;;0.97;0.63;;;7.50;70.90;;;;;;5127033;27;20036;-72
2022/02/17 02:27:24;;;;;;;1.83;0.90;;;7.50;71.20;;;;;;5133039;27;20023;-72
2022/02/17 02:29:50;;;;;;;1.57;0.80;;;7.50;71.10;;;;;;5134691;27;20079;-72
2022/02/17 02:32:16;;;;;;;1.73;1.00;;;7.40;71.00;;;;;;5127608;27;20125;-73
2022/02/17 02:34:41;;;;;;;1.90;1.20;;;7.40;71.10;;;;;;5123338;27;20028;-72
2022/02/17 02:37:07;;;;;;;3.67;1.10;;;7.30;71.00;;;;;;5131559;27;20073;-72
2022/02/17 02:39:34;;;;;;;3.37;1.20;;;7.30;71.40;;;;;;5129617;27;20087;-72
2022/02/17 02:42:00;;;;;;;1.47;1.10;;;7.40;71.60;;;;;;5134141;27;20438;-72
2022/02/17 02:44:26;;;;;;;2.73;1.13;;;7.40;71.20;;;;;;5145848;27;20034;-72
2022/02/17 02:46:52;;;;;;;2.40;0.93;;;7.50;71.00;;;;;;5130884;27;20039;-72
2022/02/17 02:49:18;;;;;;;2.17;0.60;;;7.50;70.70;;;;;;5130453;27;20114;-72
2022/02/17 02:51:44;;;;;;;1.47;0.80;;;7.40;70.80;;;;;;5113265;27;20165;-73
2022/02/17 02:54:09;;;;;;;1.13;0.50;;;7.40;71.00;;;;;;5113796;27;20117;-73
2022/02/17 02:56:35;;;;;;;2.50;1.43;;;7.30;71.40;;;;;;5129552;27;20130;-72
2022/02/17 02:59:01;;;;;;;1.67;1.00;;;7.50;71.80;;;;;;5131354;27;20433;-73
2022/02/17 03:01:27;;;;;;;1.20;0.50;;;7.40;71.10;;;;;;5147754;27;20054;-72
2022/02/17 03:03:52;;;;;;;0.57;0.30;;;7.40;71.70;;;;;;5130360;27;20031;-72
2022/02/17 03:06:18;;;;;;;1.20;0.60;;;7.40;71.30;;;;;;5126810;27;20028;-72
2022/02/17 03:08:44;;;;;;;2.67;0.53;;;7.40;71.50;;;;;;5125892;27;20027;-72
2022/02/17 03:11:10;;;;;;;1.03;0.60;;;7.40;71.80;;;;;;5132516;27;20037;-72
2022/02/17 03:13:36;;;;;;;1.17;0.70;;;7.50;72.10;;;;;;5125053;27;20038;-72
2022/02/17 03:16:02;;;;;;;2.23;0.87;;;7.50;71.60;;;;;;5127517;27;20042;-74
2022/02/17 03:18:28;;;;;;;4.70;1.07;;;7.50;71.90;;;;;;5120932;27;20023;-72
2022/02/17 03:20:53;;;;;;;3.47;1.67;;;7.60;71.60;;;;;;5125638;27;20042;-73
2022/02/17 03:23:20;;;;;;;3.73;1.27;;;7.50;71.10;;;;;;5128067;27;20027;-72
2022/02/17 03:25:46;;;;;;;2.53;1.40;;;7.40;71.30;;;;;;5129520;27;20023;-72
2022/02/17 03:28:13;;;;;;;2.10;1.00;;;7.40;71.40;;;;;;5130906;27;20102;-73
2022/02/17 03:30:39;;;;;;;3.23;1.30;;;7.40;71.50;;;;;;5132025;27;20422;-72
2022/02/17 03:33:04;;;;;;;5.13;1.60;;;7.40;71.40;;;;;;5131925;27;20042;-72
2022/02/17 03:35:30;;;;;;;2.13;1.50;;;7.40;71.20;;;;;;5126507;27;20415;-72
2022/02/17 03:37:56;;;;;;;1.60;1.00;;;7.40;71.50;;;;;;5132330;27;20341;-72
2022/02/17 03:40:22;;;;;;;3.17;0.90;;;7.30;71.50;;;;;;5133352;27;20031;-72
2022/02/17 03:42:47;;;;;;;2.47;0.70;;;7.40;71.60;;;;;;5133997;27;20058;-72
2022/02/17 03:45:13;;;;;;;1.60;0.90;;;7.40;71.60;;;;;;5130668;27;20431;-72
2022/02/17 03:47:39;;;;;;;1.37;0.73;;;7.40;71.60;;;;;;5123811;27;20042;-72
2022/02/17 03:50:07;;;;;;;1.20;0.80;;;7.40;71.50;;;;;;5129139;27;20131;-72
2022/02/17 03:52:33;;;;;;;1.43;0.80;;;7.40;71.60;;;;;;5130530;27;20031;-72
2022/02/17 03:54:59;;;;;;;2.03;1.00;;;7.40;71.80;;;;;;5131943;27;20042;-72
2022/02/17 03:57:25;;;;;;;1.40;0.93;;;7.40;71.90;;;;;;5125506;27;20403;-72
2022/02/17 03:59:50;;;;;;;1.10;0.80;;;7.40;71.90;;;;;;5133495;27;20027;-72
2022/02/17 04:02:16;;;;;;;3.00;1.10;;;7.40;72.10;;;;;;5132821;27;20038;-72
2022/02/17 04:04:42;;;;;;;1.10;0.70;;;7.50;72.10;;;;;;5123258;27;20023;-74
2022/02/17 04:07:07;;;;;;;3.13;0.60;;;7.40;71.80;;;;;;5132383;27;20557;-73
2022/02/17 04:09:33;;;;;;;1.20;0.60;;;7.50;72.30;;;;;;5132972;27;20095;-72
2022/02/17 04:11:59;;;;;;;2.27;0.70;;;7.70;71.50;;;;;;5130989;27;20027;-72
2022/02/17 04:14:25;;;;;;;1.47;0.80;;;7.80;71.10;;;;;;5132133;27;20034;-72
2022/02/17 04:16:51;;;;;;;1.03;0.63;;;7.70;71.90;;;;;;5129517;27;20031;-72
2022/02/17 04:19:18;;;;;;;0.90;0.60;;;7.60;71.50;;;;;;5148820;27;20035;-72
2022/02/17 04:21:44;;;;;;;1.57;0.90;;;7.70;71.90;;;;;;5130086;27;20395;-72
2022/02/17 04:24:10;;;;;;;1.63;0.80;;;8.00;71.30;;;;;;5133197;27;20139;-72
2022/02/17 04:26:36;;;;;;;1.53;0.80;;;8.00;70.70;;;;;;5126618;27;20710;-72
2022/02/17 04:29:01;;;;;;;2.43;0.80;;;8.00;70.90;;;;;;5127759;27;20106;-72
2022/02/17 04:31:27;;;;;;;1.53;0.90;;;7.90;70.90;;;;;;5130802;27;20022;-72
2022/02/17 04:33:53;;;;;;;2.23;1.10;;;7.90;71.10;;;;;;5130817;27;20062;-72
2022/02/17 04:36:19;;;;;;;3.03;1.57;;;7.80;71.30;;;;;;5129976;27;20076;-72
2022/02/17 04:38:45;;;;;;;2.67;1.43;;;7.80;71.50;;;;;;5127304;27;20472;-72
2022/02/17 04:43:56;;;;;;;6.40;2.73;;;7.90;71.60;;;;;;5129767;27;20035;-73
2022/02/17 04:46:23;;;;;;;4.53;1.90;;;7.80;71.30;;;;;;5123282;27;20128;-72
2022/02/17 04:48:50;;;;;;;5.17;2.10;;;7.60;71.80;;;;;;5131318;27;20027;-72
2022/02/17 04:51:15;;;;;;;6.07;2.93;;;7.60;72.50;;;;;;5132643;27;20391;-73
2022/02/17 04:53:41;;;;;;;8.33;3.70;;;7.70;72.50;;;;;;5130602;27;20034;-72
2022/02/17 04:56:07;;;;;;;5.70;2.40;;;7.70;71.80;;;;;;5130465;28;20031;-72
2022/02/17 04:58:35;;;;;;;6.37;2.40;;;7.70;72.10;;;;;;5131274;28;20035;-72
2022/02/17 05:01:00;;;;;;;2.40;1.60;;;7.70;71.90;;;;;;5123983;27;20058;-74
2022/02/17 05:03:26;;;;;;;2.60;1.40;;;7.70;71.90;;;;;;5130102;27;20074;-72
2022/02/17 05:05:56;;;;;;;4.00;1.97;;;7.70;72.60;;;;;;5130455;27;20030;-72
2022/02/17 05:08:22;;;;;;;1.47;0.77;;;7.80;72.70;;;;;;5125815;27;20016;-73
2022/02/17 05:10:48;;;;;;;1.63;0.90;;;8.00;72.40;;;;;;5132387;27;20039;-72
2022/02/17 05:13:15;;;;;;;1.53;1.03;;;8.20;71.40;;;;;;5129725;28;20027;-72
2022/02/17 05:15:41;;;;;;;2.20;1.17;;;8.10;70.80;;;;;;5129322;27;20427;-73
2022/02/17 05:18:07;;;;;;;1.20;0.80;;;8.00;71.40;;;;;;5124734;28;20061;-73
2022/02/17 05:20:33;;;;;;;2.90;1.23;;;8.00;71.90;;;;;;5131458;28;20035;-72
2022/02/17 05:22:59;;;;;;;4.03;1.33;;;8.00;71.80;;;;;;5129290;28;20035;-72
2022/02/17 05:25:25;;;;;;;1.30;0.80;;;8.00;71.90;;;;;;5127862;28;20035;-72
2022/02/17 05:27:51;;;;;;;2.07;1.30;;;8.00;71.90;;;;;;5130062;28;20042;-72
2022/02/17 05:30:17;;;;;;;5.17;2.20;;;8.10;71.70;;;;;;5131045;28;20102;-73
2022/02/17 05:32:43;;;;;;;2.70;0.90;;;8.10;71.70;;;;;;5128213;28;20027;-74
2022/02/17 05:35:11;;;;;;;2.50;1.10;;;8.10;71.80;;;;;;5129209;27;20084;-72
2022/02/17 05:37:38;;;;;;;5.43;1.63;;;8.20;71.60;;;;;;5129443;27;20038;-73
2022/02/17 05:40:06;;;;;;;2.73;1.53;;;8.10;71.70;;;;;;5131304;28;20031;-72
2022/02/17 05:42:32;;;;;;;3.73;1.77;;;8.20;71.70;;;;;;5132179;27;20033;-72
2022/02/17 05:44:58;;;;;;;5.83;2.40;;;8.10;72.00;;;;;;5131562;27;20046;-73
2022/02/17 05:47:24;;;;;;;3.87;2.60;;;8.00;72.30;;;;;;5132403;27;20043;-72
2022/02/17 05:49:50;;;;;;;6.07;4.10;;;8.00;72.30;;;;;;5133166;27;20448;-72
2022/02/17 05:52:16;;;;;;;4.67;2.67;;;8.20;71.90;;;;;;5121832;27;20030;-72
2022/02/17 05:54:41;;;;;;;4.17;2.60;;;8.30;71.50;;;;;;5134117;27;20418;-72
2022/02/17 05:57:07;;;;;;;2.93;1.87;;;8.40;71.00;;;;;;5135751;27;20050;-72
2022/02/17 05:59:34;;;;;;;3.60;1.80;;;8.30;71.10;;;;;;5134497;27;20027;-72
2022/02/17 06:01:59;;;;;;;3.30;1.70;;;8.30;71.30;;;;;;5124669;27;20027;-73
2022/02/17 06:04:25;;;;;;;2.60;1.50;;;8.30;71.50;;;;;;5132622;27;20030;-73
2022/02/17 06:06:51;;;;;;;3.87;1.37;;;8.20;71.50;;;;;;5127624;27;20092;-72
2022/02/17 06:09:17;;;;;;;1.97;1.20;;;8.30;71.60;;;;;;5133625;27;20446;-72
2022/02/17 06:11:42;;;;;;;2.80;1.73;;;8.40;71.90;;;;;;5133761;27;20371;-72
2022/02/17 06:14:08;;;;;;;4.13;2.07;;;8.50;71.00;;;;;;5133381;27;20042;-72
2022/02/17 06:16:34;;;;;;;3.43;1.80;;;8.60;70.40;;;;;;5144284;27;20028;-72
2022/02/17 06:18:59;;;;;;;6.37;3.77;;;8.50;70.40;;;;;;5133722;27;20035;-72
2022/02/17 06:21:25;;;;;;;8.17;3.50;;;8.40;70.70;;;;;;5133951;27;20031;-72
2022/02/17 06:23:51;;;;;;;7.40;3.30;;;8.40;70.60;;;;;;5131784;27;20031;-72
2022/02/17 06:26:18;;;;;;;6.33;2.73;;;8.20;71.00;;;;;;5130547;27;20032;-72
2022/02/17 06:28:44;;;;;;;4.77;2.77;;;8.30;71.60;;;;;;5129744;27;20145;-73
2022/02/17 06:31:11;;;;;;;8.13;3.47;;;8.40;70.90;;;;;;5124772;27;20027;-72
2022/02/17 06:33:37;;;;;;;2.40;1.90;;;8.30;70.60;;;;;;5126463;27;20511;-72
2022/02/17 06:36:03;;;;;;;6.30;4.33;;;8.10;71.50;;;;;;5133953;27;20038;-72
2022/02/17 06:38:30;;;;;;;10.97;6.53;;;8.10;71.70;;;;;;5126689;27;20038;-72
2022/02/17 06:40:56;;;;;;;8.33;5.87;;;8.10;71.90;;;;;;5132774;27;20031;-72
2022/02/17 06:43:23;;;;;;;5.70;3.47;;;8.00;71.60;;;;;;5127060;27;20042;-72
2022/02/17 06:45:49;;;;;;;17.77;6.37;;;8.30;72.00;;;;;;5132441;27;20074;-72
2022/02/17 06:48:14;;;;;;;11.97;5.80;;;8.50;71.00;;;;;;5133044;27;20023;-72
2022/02/17 06:50:40;;;;;;;8.73;5.80;;;8.30;70.80;;;;;;5129288;27;20019;-72
2022/02/17 06:53:07;;;;;;;15.10;10.13;;;8.30;71.40;;;;;;5130745;27;20452;-73
2022/02/17 06:55:34;;;;;;;21.17;12.93;;;8.30;71.30;;;;;;5129534;27;20406;-72
2022/02/17 06:58:00;;;;;;;12.90;6.43;;;8.20;71.30;;;;;;5134403;27;20023;-72
2022/02/17 07:00:26;;;;;;;6.83;4.33;;;8.20;71.90;;;;;;5143835;27;20072;-72
2022/02/17 07:02:54;;;;;;;13.37;7.93;;;8.20;71.60;;;;;;5131733;27;20039;-72
2022/02/17 07:05:25;;;;;;;20.00;13.33;;;8.30;71.80;;;;;;5112166;27;20662;-72
2022/02/17 07:07:51;;;;;;;27.13;18.90;;;8.30;71.50;;;;;;5129893;27;20106;-74
2022/02/17 07:11:03;;;;;;;15.57;9.77;;;8.20;71.20;;;;;;5130420;27;20045;-72
2022/02/17 07:13:04;;;;;;;9.90;6.47;;;8.00;72.20;;;;;;5125252;27;20039;-72
2022/02/17 07:15:34;;;;;;;7.47;5.10;;;8.10;71.90;;;;;;5132508;27;20041;-72
2022/02/17 07:18:01;;;;;;;7.87;4.97;;;8.10;71.90;;;;;;5137730;27;20060;-72
2022/02/17 07:20:27;;;;;;;62.43;25.60;;;8.20;72.20;;;;;;5120663;27;20023;-72
2022/02/17 07:22:52;;;;;;;8.83;5.23;;;8.30;71.90;;;;;;5121059;27;20526;-73
2022/02/17 07:25:18;;;;;;;9.27;4.90;;;8.30;71.90;;;;;;5117872;27;20038;-72
2022/02/17 07:27:44;;;;;;;6.47;3.90;;;8.20;72.10;;;;;;5128620;27;20024;-73
2022/02/17 07:30:10;;;;;;;8.47;3.77;;;8.30;72.40;;;;;;5143063;27;20767;-72
2022/02/17 07:32:40;;;;;;;7.40;4.10;;;8.40;72.30;;;;;;5120428;27;20023;-72
2022/02/17 07:35:06;;;;;;;3.87;2.77;;;8.70;72.00;;;;;;5131876;27;20038;-72
2022/02/17 07:37:31;;;;;;;4.57;3.10;;;8.80;70.70;;;;;;5131225;27;20027;-72
2022/02/17 07:39:57;;;;;;;4.03;2.90;;;8.80;71.10;;;;;;5124770;27;20031;-72
2022/02/17 07:42:23;;;;;;;6.17;3.07;;;8.90;70.80;;;;;;5130631;27;20471;-72
2022/02/17 07:44:48;;;;;;;3.77;2.53;;;8.80;71.00;;;;;;5125351;27;20023;-73
2022/02/17 07:47:14;;;;;;;5.17;2.97;;;8.70;71.10;;;;;;5130649;27;20467;-72
2022/02/17 07:49:40;;;;;;;3.93;2.30;;;8.70;71.50;;;;;;5123863;27;20019;-72
2022/02/17 07:52:06;;;;;;;4.03;2.37;;;8.70;71.80;;;;;;5128127;27;20035;-72
2022/02/17 07:54:31;;;;;;;4.70;2.47;;;8.80;71.50;;;;;;5131254;27;20434;-74
2022/02/17 07:57:00;;;;;;;6.50;3.43;;;8.80;71.50;;;;;;5120088;27;20418;-72
2022/02/17 07:59:26;;;;;;;3.57;2.10;;;8.80;71.50;;;;;;5125942;27;20349;-72
2022/02/17 08:01:51;;;;;;;4.17;2.53;;;9.00;71.70;;;;;;5130353;27;20036;-72
2022/02/17 08:04:17;;;;;;;5.27;2.77;;;9.10;71.20;;;;;;5124989;27;20027;-72
2022/02/17 08:06:43;;;;;;;5.03;2.93;;;9.10;70.90;;;;;;5128289;27;20030;-72
2022/02/17 08:09:09;;;;;;;4.67;2.80;;;9.00;71.30;;;;;;5122135;27;20377;-72
2022/02/17 08:11:35;;;;;;;6.47;2.83;;;9.00;71.30;;;;;;5130894;27;20031;-72
2022/02/17 08:14:01;;;;;;;7.93;3.43;;;9.10;71.60;;;;;;5127221;27;20032;-72
2022/02/17 08:16:27;;;;;;;7.33;2.97;;;9.10;71.30;;;;;;5126331;27;20044;-72
2022/02/17 08:18:53;;;;;;;4.73;2.67;;;9.20;71.40;;;;;;5123153;27;20042;-73
2022/02/17 08:21:18;;;;;;;4.83;2.93;;;9.40;70.80;;;;;;5127629;27;20038;-74
2022/02/17 08:23:44;;;;;;;4.47;2.77;;;9.60;70.00;;;;;;5125351;27;20438;-72
2022/02/17 08:26:10;;;;;;;5.77;3.40;;;9.80;69.60;;;;;;5128830;27;20030;-73
2022/02/17 08:28:36;;;;;;;24.30;10.23;;;9.80;69.50;;;;;;5143142;27;20019;-73
2022/02/17 08:31:03;;;;;;;5.43;3.07;;;9.70;69.60;;;;;;5119970;27;20072;-72
2022/02/17 08:33:29;;;;;;;8.13;4.17;;;9.60;69.90;;;;;;5123391;27;20035;-72
2022/02/17 08:35:54;;;;;;;12.53;5.63;;;9.70;69.80;;;;;;5121855;27;20029;-73
2022/02/17 08:38:20;;;;;;;14.53;5.53;;;9.90;69.50;;;;;;5128277;27;20031;-76
2022/02/17 08:40:46;;;;;;;10.47;4.07;;;10.00;69.00;;;;;;5133032;27;20023;-76
2022/02/17 08:43:13;;;;;;;7.53;4.37;;;10.40;68.50;;;;;;5135051;27;20027;-77
2022/02/17 08:45:44;;;;;;;6.10;3.70;;;11.50;66.60;;;;;;5139781;27;20031;-76
2022/02/17 08:48:11;;;;;;;5.37;3.47;;;13.10;61.80;;;;;;5132514;27;20038;-76
2022/02/17 08:50:39;;;;;;;7.15;4.05;;;16.10;56.10;;;;;;5129961;27;20019;-77
2022/02/17 08:53:05;;;;;;;4.50;2.90;;;19.70;49.60;;;;;;5132527;27;20478;-77
2022/02/17 08:55:31;;;;;;;5.22;2.60;;;21.50;45.90;;;;;;5126855;28;20091;-77
2022/02/17 08:57:57;;;;;;;4.07;3.20;;;21.40;46.60;;;;;;5132202;28;20027;-77
2022/02/17 09:00:23;;;;;;;4.43;3.95;;;20.50;48.70;;;;;;5131775;28;20031;-78
2022/02/17 09:02:49;;;;;;;7.43;6.43;;;19.10;50.60;;;;;;5129428;28;20031;-77
2022/02/17 09:05:14;;;;;;;9.88;5.60;;;18.40;53.00;;;;;;5123486;27;20019;-77
2022/02/17 09:07:40;;;;;;;14.10;8.82;;;17.80;54.20;;;;;;5135698;27;20027;-77
2022/02/17 09:10:06;;;;;;;14.27;7.45;;;17.30;55.20;;;;;;5124208;28;20076;-77
2022/02/17 09:12:33;;;;;;;5.20;3.15;;;16.70;55.50;;;;;;5121870;28;20141;-77
2022/02/17 09:14:59;;;;;;;7.15;3.47;;;16.10;56.20;;;;;;5132066;28;20061;-77
2022/02/17 09:17:25;;;;;;;4.80;2.20;;;15.70;56.80;;;;;;5134597;27;20023;-77
2022/02/17 09:19:51;;;;;;;1.90;1.25;;;15.40;56.50;;;;;;5134067;27;20034;-77
2022/02/17 09:22:17;;;;;;;4.40;1.70;;;15.20;56.50;;;;;;5153439;27;20019;-77
2022/02/17 09:24:42;;;;;;;4.00;1.92;;;15.10;56.90;;;;;;5134752;27;20008;-77
2022/02/17 09:27:08;;;;;;;4.82;2.50;;;15.20;56.90;;;;;;5130916;27;20037;-77
2022/02/17 09:29:35;;;;;;;4.25;2.17;;;15.00;56.20;;;;;;5119263;27;20672;-78
2022/02/17 09:32:01;;;;;;;4.20;2.40;;;14.90;56.40;;;;;;5141011;27;20031;-77
2022/02/17 09:34:26;;;;;;;4.72;2.90;;;14.90;56.10;;;;;;5149687;27;20029;-77
2022/02/17 09:36:52;;;;;;;7.40;3.22;;;15.10;55.60;;;;;;5130460;27;20023;-77
2022/02/17 09:39:21;;;;;;;5.93;2.60;;;15.20;55.60;;;;;;5134444;27;20028;-78
2022/02/17 09:41:47;;;;;;;2.95;1.77;;;15.60;55.40;;;;;;5130505;27;20433;-77
2022/02/17 09:44:13;;;;;;;2.83;1.50;;;15.90;54.60;;;;;;5134206;27;20035;-77
2022/02/17 09:46:45;;;;;;;4.15;1.52;;;16.50;54.60;;;;;;5134750;27;20043;-78
2022/02/17 09:49:18;;;;;;;3.70;1.92;;;17.10;54.30;;;;;;5124747;27;20789;-77
2022/02/17 09:51:45;;;;;;;2.50;2.20;;;17.70;53.60;;;;;;5119504;27;20068;-77
2022/02/17 09:54:11;;;;;;;2.45;1.55;;;18.00;53.10;;;;;;5138709;27;20026;-78
2022/02/17 09:56:37;;;;;;;2.47;1.42;;;18.40;51.80;;;;;;5135509;27;20027;-77
2022/02/17 09:59:04;;;;;;;3.13;2.50;;;18.70;50.80;;;;;;5135325;27;20023;-77
2022/02/17 10:01:30;;;;;;;2.65;2.22;;;18.40;49.70;;;;;;5130946;27;20499;-77
2022/02/17 10:04:17;;;;;;;2.38;1.42;;;18.30;49.70;;;;;;5124366;27;20042;-77
2022/02/17 10:06:50;;;;;;;1.60;1.00;;;18.10;48.00;;;;;;5136127;27;20027;-77
2022/02/17 10:09:17;;;;;;;3.78;1.33;;;17.70;47.40;;;;;;5150694;27;20026;-77
2022/02/17 10:11:45;;;;;;;1.30;1.05;;;17.60;48.20;;;;;;5134076;27;20039;-77
2022/02/17 10:14:13;;;;;;;2.67;1.10;;;17.40;47.90;;;;;;5128171;27;20154;-77
2022/02/17 10:17:03;;;;;;;2.00;1.17;;;17.40;47.60;;;;;;5137491;27;20035;-78
2022/02/17 10:19:50;;;;;;;2.20;1.23;;;17.30;47.20;;;;;;5146948;27;20043;-77
2022/02/17 10:22:19;;;;;;;1.33;0.88;;;16.90;47.60;;;;;;5134968;27;20027;-76
2022/02/17 10:24:48;;;;;;;1.05;0.93;;;16.70;47.60;;;;;;5130827;27;20030;-77
2022/02/17 10:27:21;;;;;;;1.95;0.93;;;16.80;47.80;;;;;;5131054;27;20031;-77
2022/02/17 10:30:12;;;;;;;1.88;1.10;;;16.90;47.20;;;;;;5125713;27;20031;-77
2022/02/17 10:32:56;;;;;;;6.57;1.30;;;16.90;46.80;;;;;;5117851;27;20038;-77
2022/02/17 10:35:23;;;;;;;2.15;1.00;;;16.80;46.50;;;;;;5130392;27;20494;-82
2022/02/17 10:37:51;;;;;;;3.03;1.38;;;16.60;46.50;;;;;;5149767;27;20031;-84
2022/02/17 10:40:30;;;;;;;2.00;1.17;;;16.60;46.20;;;;;;5131998;27;20441;-84
2022/02/17 10:43:08;;;;;;;3.25;1.88;;;16.60;46.10;;;;;;5135040;27;20028;-83
2022/02/17 10:45:35;;;;;;;4.25;1.77;;;16.60;45.90;;;;;;5144936;27;20015;-84
2022/02/17 10:48:11;;;;;;;3.35;1.50;;;16.50;46.00;;;;;;5115322;28;20058;-83
2022/02/17 10:50:36;;;;;;;1.75;1.10;;;16.50;45.30;;;;;;5131881;27;20023;-79
2022/02/17 10:53:15;;;;;;;5.00;1.13;;;16.60;44.90;;;;;;5133276;27;20085;-78
2022/02/17 10:55:58;;;;;;;4.22;1.20;;;16.80;44.20;;;;;;5126025;27;20479;-79
2022/02/17 10:58:28;;;;;;;1.65;1.20;;;17.00;44.00;;;;;;5130172;27;20037;-79
2022/02/17 11:00:58;;;;;;;4.00;1.00;;;17.00;44.10;;;;;;5150378;27;20027;-79
2022/02/17 11:03:29;;;;;;;3.58;0.80;;;17.00;44.40;;;;;;5145860;27;20027;-79
2022/02/17 11:05:56;;;;;;;4.13;0.93;;;16.90;44.10;;;;;;5159544;27;20071;-79
2022/02/17 11:08:22;;;;;;;3.65;0.70;;;16.70;43.90;;;;;;5145408;27;20051;-79
2022/02/17 11:10:48;;;;;;;1.90;0.60;;;16.70;44.40;;;;;;5114549;28;20043;-79
2022/02/17 11:13:24;;;;;;;2.38;0.47;;;16.60;43.50;;;;;;5143821;27;20035;-79
2022/02/17 11:15:51;;;;;;;2.40;0.60;;;16.60;43.10;;;;;;5132547;27;20387;-79
2022/02/17 11:18:19;;;;;;;0.98;0.40;;;16.60;43.10;;;;;;5113015;28;20046;-79
2022/02/17 11:20:47;;;;;;;1.67;0.50;;;16.70;42.60;;;;;;5131607;27;20019;-79
2022/02/17 11:23:18;;;;;;;0.68;0.50;;;16.80;42.50;;;;;;5136635;27;20118;-79
2022/02/17 11:25:46;;;;;;;1.15;0.55;;;17.10;42.60;;;;;;5135290;27;20108;-79
2022/02/17 11:28:15;;;;;;;0.32;0.30;;;17.30;42.30;;;;;;5133261;27;20028;-79
2022/02/17 11:30:58;;;;;;;0.47;0.30;;;17.40;41.80;;;;;;5142940;27;20155;-79
2022/02/17 11:33:41;;;;;;;0.80;0.60;;;17.60;41.30;;;;;;5134720;27;20038;-79
2022/02/17 11:36:19;;;;;;;0.40;0.40;;;17.70;41.00;;;;;;5150839;27;20073;-79
2022/02/17 11:38:50;;;;;;;0.95;0.30;;;17.90;40.50;;;;;;5155723;27;20109;-79
2022/02/17 11:41:18;;;;;;;1.13;0.35;;;18.00;40.30;;;;;;5149578;27;20019;-79
2022/02/17 11:43:50;;;;;;;2.47;0.50;;;18.10;40.00;;;;;;5112812;28;20113;-79
2022/02/17 11:46:41;;;;;;;0.52;0.20;;;18.20;39.60;;;;;;5112907;28;20035;-79
2022/02/17 11:49:11;;;;;;;0.30;0.30;;;18.30;39.70;;;;;;5130387;27;20030;-79
2022/02/17 11:51:37;;;;;;;0.40;0.30;;;18.30;39.30;;;;;;5150746;27;20536;-79
2022/02/17 11:54:19;;;;;;;1.92;0.40;;;18.40;39.20;;;;;;5132285;27;20117;-79
2022/02/17 11:56:52;;;;;;;2.93;0.33;;;18.50;39.00;;;;;;5114161;28;20024;-79
2022/02/17 11:59:32;;;;;;;6.15;0.25;;;18.40;38.80;;;;;;5133648;27;20299;-79
2022/02/17 12:01:59;;;;;;;0.57;0.30;;;18.40;38.80;;;;;;5138698;27;20752;-79
2022/02/17 12:04:26;;;;;;;2.15;0.30;;;18.50;38.50;;;;;;5113537;28;20035;-79
2022/02/17 12:07:03;;;;;;;1.77;0.50;;;18.50;38.60;;;;;;5129961;27;20024;-79
2022/02/17 12:09:39;;;;;;;6.13;0.50;;;18.40;38.00;;;;;;5116993;27;20031;-79
2022/02/17 12:12:26;;;;;;;1.77;0.60;;;18.30;37.90;;;;;;5124792;27;20063;-79
2022/02/17 12:14:57;;;;;;;2.83;0.68;;;18.40;38.30;;;;;;5135430;27;20038;-79
2022/02/17 12:17:28;;;;;;;4.70;0.85;;;18.40;37.90;;;;;;5129207;27;20107;-79
2022/02/17 12:20:07;;;;;;;3.75;1.08;;;18.30;37.80;;;;;;5135513;27;20514;-79
2022/02/17 12:22:34;;;;;;;4.30;0.75;;;18.30;37.90;;;;;;5122531;27;20077;-79
2022/02/17 12:25:15;;;;;;;0.50;0.20;;;18.30;38.10;;;;;;5130400;27;20050;-79
2022/02/17 12:27:45;;;;;;;0.70;0.40;;;18.20;37.40;;;;;;5131208;27;20031;-79
2022/02/17 12:30:11;;;;;;;1.15;0.50;;;18.20;37.50;;;;;;5144770;27;20064;-79
2022/02/17 12:32:37;;;;;;;0.52;0.30;;;18.10;37.50;;;;;;5131979;27;20027;-79
2022/02/17 12:35:03;;;;;;;1.77;0.50;;;18.10;37.50;;;;;;5133858;27;20023;-79
2022/02/17 12:37:29;;;;;;;0.88;0.60;;;17.90;37.70;;;;;;5135350;27;20483;-79
2022/02/17 12:39:54;;;;;;;3.05;0.73;;;17.80;37.30;;;;;;5146711;27;20027;-79
2022/02/17 12:42:21;;;;;;;0.90;0.50;;;17.90;37.00;;;;;;5111483;28;20093;-79
2022/02/17 12:44:49;;;;;;;3.78;0.75;;;17.90;36.90;;;;;;5136252;27;20058;-79
2022/02/17 12:47:16;;;;;;;1.10;0.40;;;18.00;37.00;;;;;;5146363;27;20090;-79
2022/02/17 12:49:42;;;;;;;0.20;0.20;;;18.10;36.80;;;;;;5137907;27;20464;-79
2022/02/17 12:52:09;;;;;;;5.50;0.40;;;18.10;36.80;;;;;;5133426;27;20091;-79
2022/02/17 12:54:39;;;;;;;0.93;0.50;;;18.10;37.10;;;;;;5130673;27;20028;-78
2022/02/17 12:57:06;;;;;;;0.60;0.20;;;18.10;37.50;;;;;;5111614;28;20033;-79